Time;durP1;ratioP1;P1;durP2;ratioP2;P2;SDS_P1;SDS_P2;PMS_P1;PMS_P2;Temp;Humidity;BMP_temperature;BMP_pressure;BME280_temperature;BME280_humidity;BME280_pressure;Samples;Min_cycle;Max_cycle;Signal;HPM_P1;HPM_P2
2022/09/18 00:02:22;;;;;;;1.40;1.30;;;23.90;40.30;;;;;;6202799;23;20202;-61
2022/09/18 00:04:48;;;;;;;1.30;1.20;;;23.90;40.30;;;;;;6205676;23;20800;-62
2022/09/18 00:07:13;;;;;;;1.20;1.10;;;23.90;40.30;;;;;;6202968;23;20276;-64
2022/09/18 00:09:39;;;;;;;2.60;1.70;;;23.90;40.30;;;;;;6204548;23;20256;-60
2022/09/18 00:12:04;;;;;;;2.53;1.30;;;23.90;40.30;;;;;;6206443;23;20549;-60
2022/09/18 00:14:30;;;;;;;1.50;1.40;;;23.90;40.30;;;;;;6206031;23;20240;-62
2022/09/18 00:16:55;;;;;;;1.30;1.20;;;23.90;40.30;;;;;;6203028;23;20728;-60
2022/09/18 00:19:21;;;;;;;1.90;1.60;;;23.90;40.30;;;;;;6204623;23;20229;-59
2022/09/18 00:21:49;;;;;;;1.40;1.30;;;23.90;40.30;;;;;;6204020;23;20288;-60
2022/09/18 00:24:16;;;;;;;1.30;1.20;;;23.90;40.40;;;;;;6202610;23;20197;-62
2022/09/18 00:26:42;;;;;;;1.23;1.13;;;23.90;40.30;;;;;;6203611;23;20882;-60
2022/09/18 00:29:10;;;;;;;1.20;1.10;;;23.90;40.30;;;;;;6203833;23;20427;-62
2022/09/18 00:31:36;;;;;;;1.60;1.50;;;23.90;40.30;;;;;;6201878;23;20229;-60
2022/09/18 00:34:06;;;;;;;1.60;1.30;;;23.90;40.30;;;;;;6207412;23;20415;-62
2022/09/18 00:36:33;;;;;;;2.10;1.20;;;23.90;40.30;;;;;;6206257;23;20497;-64
2022/09/18 00:38:58;;;;;;;2.20;1.53;;;23.90;40.30;;;;;;6198732;23;20447;-61
2022/09/18 00:41:30;;;;;;;1.30;1.20;;;23.90;40.30;;;;;;6197201;23;20415;-60
2022/09/18 00:44:32;;;;;;;1.40;1.30;;;23.90;40.30;;;;;;6185497;23;20206;-60
2022/09/18 00:47:01;;;;;;;1.30;1.20;;;23.90;40.30;;;;;;6173842;23;20421;-60
2022/09/18 00:49:27;;;;;;;1.30;1.20;;;23.90;40.40;;;;;;6192318;23;20802;-60
2022/09/18 00:51:55;;;;;;;1.40;1.30;;;23.90;40.40;;;;;;6204633;23;20426;-63
2022/09/18 00:54:30;;;;;;;1.53;1.43;;;23.90;41.20;;;;;;6202631;23;20219;-66
2022/09/18 00:57:02;;;;;;;1.60;1.50;;;23.90;40.40;;;;;;6205103;23;21143;-60
2022/09/18 00:59:31;;;;;;;1.47;1.37;;;23.90;40.30;;;;;;6190498;23;20420;-61
2022/09/18 01:01:58;;;;;;;1.37;1.27;;;23.90;40.40;;;;;;6197437;23;20408;-65
2022/09/18 01:04:25;;;;;;;1.30;1.20;;;23.90;40.30;;;;;;6185742;23;20419;-60
2022/09/18 01:07:06;;;;;;;1.50;1.40;;;23.90;40.40;;;;;;6203722;23;20863;-60
2022/09/18 01:09:43;;;;;;;1.67;1.57;;;23.90;40.30;;;;;;6196246;23;20505;-62
2022/09/18 01:12:31;;;;;;;3.33;1.30;;;23.90;40.40;;;;;;6173804;23;20431;-60
2022/09/18 01:15:25;;;;;;;1.40;1.30;;;23.90;40.40;;;;;;6196779;23;20552;-59
2022/09/18 01:17:59;;;;;;;1.20;1.10;;;23.90;40.40;;;;;;6187044;23;20421;-63
2022/09/18 01:20:53;;;;;;;1.40;1.30;;;23.90;40.40;;;;;;6172978;23;20420;-61
2022/09/18 01:23:56;;;;;;;1.13;1.07;;;23.80;40.30;;;;;;6205759;23;20911;-60
2022/09/18 01:26:37;;;;;;;1.20;1.10;;;23.80;40.30;;;;;;6174664;23;20459;-61
2022/09/18 01:29:09;;;;;;;1.23;1.13;;;23.80;40.30;;;;;;6196028;23;20447;-60
2022/09/18 01:31:44;;;;;;;1.30;1.10;;;23.80;40.30;;;;;;6197286;23;20428;-60
2022/09/18 01:34:25;;;;;;;1.47;1.37;;;23.80;40.30;;;;;;6206267;23;20898;-62
2022/09/18 01:36:57;;;;;;;1.40;1.10;;;23.80;40.30;;;;;;6206057;23;20420;-60
2022/09/18 01:39:36;;;;;;;1.37;1.10;;;23.80;40.30;;;;;;6203926;23;20431;-62
2022/09/18 01:42:04;;;;;;;1.33;1.23;;;23.80;40.30;;;;;;6181265;23;20416;-64
2022/09/18 01:44:32;;;;;;;1.40;1.30;;;23.80;40.30;;;;;;6177002;23;20440;-61
2022/09/18 01:47:01;;;;;;;3.20;1.10;;;23.80;40.30;;;;;;6199562;23;20767;-60
2022/09/18 01:49:32;;;;;;;1.40;1.30;;;23.80;40.30;;;;;;6205102;23;20486;-60
2022/09/18 01:52:29;;;;;;;1.10;1.00;;;23.80;40.30;;;;;;6174607;23;20447;-65
2022/09/18 01:54:57;;;;;;;1.40;1.30;;;23.80;40.30;;;;;;6197161;23;20466;-60
2022/09/18 01:57:26;;;;;;;1.50;1.40;;;23.80;40.30;;;;;;6194732;23;21021;-60
2022/09/18 01:59:58;;;;;;;1.67;1.17;;;23.80;40.30;;;;;;6203974;23;20427;-62
2022/09/18 02:02:35;;;;;;;1.30;1.20;;;23.80;40.30;;;;;;6205114;23;20416;-62
2022/09/18 02:05:06;;;;;;;1.73;1.03;;;23.80;40.40;;;;;;6186759;23;20412;-60
2022/09/18 02:07:46;;;;;;;1.40;1.30;;;23.80;40.30;;;;;;6205728;23;21080;-60
2022/09/18 02:10:12;;;;;;;1.10;1.00;;;23.80;40.30;;;;;;6181694;23;20432;-59
2022/09/18 02:12:40;;;;;;;1.40;1.30;;;23.80;40.30;;;;;;6177808;23;20424;-60
2022/09/18 02:15:12;;;;;;;1.10;1.00;;;23.80;40.30;;;;;;6175142;23;20230;-63
2022/09/18 02:17:45;;;;;;;1.47;1.37;;;23.80;40.30;;;;;;6204806;23;20408;-61
2022/09/18 02:20:21;;;;;;;1.33;1.10;;;23.80;40.30;;;;;;6206296;23;20416;-60
2022/09/18 02:22:50;;;;;;;1.70;1.60;;;23.80;40.20;;;;;;6204599;23;20420;-63
2022/09/18 02:25:20;;;;;;;1.37;1.00;;;23.80;40.30;;;;;;6205360;23;20452;-64
2022/09/18 02:27:48;;;;;;;1.20;1.10;;;23.80;40.30;;;;;;6207121;23;20887;-61
2022/09/18 02:30:13;;;;;;;1.20;1.10;;;23.80;40.30;;;;;;6176199;23;20515;-64
2022/09/18 02:32:40;;;;;;;1.20;1.10;;;23.80;40.30;;;;;;6206263;23;20466;-61
2022/09/18 02:35:08;;;;;;;1.30;1.07;;;23.80;40.30;;;;;;6206299;23;20197;-60
2022/09/18 02:37:56;;;;;;;1.40;1.30;;;23.80;40.30;;;;;;6207729;23;20411;-60
2022/09/18 02:40:49;;;;;;;1.10;1.00;;;23.80;40.30;;;;;;6203137;23;20498;-59
2022/09/18 02:43:14;;;;;;;1.10;1.00;;;23.80;40.30;;;;;;6181697;23;20421;-65
2022/09/18 02:46:04;;;;;;;1.33;1.23;;;23.80;40.30;;;;;;6183818;23;20724;-60
2022/09/18 02:48:51;;;;;;;1.30;0.97;;;23.80;40.30;;;;;;6199770;23;20220;-60
2022/09/18 02:51:40;;;;;;;1.10;1.00;;;23.80;40.40;;;;;;6204170;23;20416;-61
2022/09/18 02:54:16;;;;;;;1.20;1.10;;;23.80;40.40;;;;;;6197408;23;20799;-61
2022/09/18 02:56:51;;;;;;;1.10;1.00;;;23.80;40.30;;;;;;6205647;23;20426;-61
2022/09/18 02:59:23;;;;;;;0.80;0.80;;;23.80;40.30;;;;;;6202305;23;20960;-62
2022/09/18 03:01:50;;;;;;;1.20;1.10;;;23.80;40.30;;;;;;6200924;23;20431;-60
2022/09/18 03:04:22;;;;;;;1.17;1.07;;;23.80;40.30;;;;;;6204531;23;20423;-62
2022/09/18 03:06:47;;;;;;;1.30;1.13;;;23.80;40.30;;;;;;6203798;23;20428;-62
2022/09/18 03:09:14;;;;;;;1.33;1.23;;;23.80;40.30;;;;;;6205498;23;20814;-60
2022/09/18 03:11:40;;;;;;;1.13;1.03;;;23.80;40.30;;;;;;6204840;23;20243;-60
2022/09/18 03:14:06;;;;;;;1.30;1.10;;;23.80;40.30;;;;;;6178774;23;20419;-60
2022/09/18 03:16:32;;;;;;;1.10;1.00;;;23.80;40.30;;;;;;6202581;23;20214;-61
2022/09/18 03:18:58;;;;;;;1.10;1.00;;;23.80;40.30;;;;;;6205995;23;20626;-60
2022/09/18 03:21:24;;;;;;;1.30;1.20;;;23.80;40.30;;;;;;6206973;23;20618;-63
2022/09/18 03:23:50;;;;;;;1.40;1.10;;;23.80;40.40;;;;;;6205498;23;20495;-60
2022/09/18 03:26:16;;;;;;;1.50;1.40;;;23.80;40.30;;;;;;6207292;23;20416;-63
2022/09/18 03:28:43;;;;;;;0.97;0.93;;;23.80;40.40;;;;;;6207545;23;20680;-60
2022/09/18 03:31:09;;;;;;;1.50;1.03;;;23.80;40.50;;;;;;6205103;23;20194;-62
2022/09/18 03:33:35;;;;;;;1.10;1.00;;;23.80;40.30;;;;;;6205554;23;20937;-60
2022/09/18 03:36:01;;;;;;;1.17;1.07;;;23.80;40.40;;;;;;6207104;23;20411;-60
2022/09/18 03:38:26;;;;;;;1.10;1.00;;;23.80;40.40;;;;;;6205833;23;20229;-60
2022/09/18 03:40:52;;;;;;;1.10;1.00;;;23.80;40.30;;;;;;6206028;23;20420;-61
2022/09/18 03:43:17;;;;;;;1.00;0.90;;;23.80;40.40;;;;;;6207150;23;20278;-59
2022/09/18 03:45:43;;;;;;;1.23;1.13;;;23.80;40.40;;;;;;6203960;23;20228;-61
2022/09/18 03:48:09;;;;;;;0.80;0.80;;;23.80;40.40;;;;;;6204942;23;20197;-60
2022/09/18 03:50:34;;;;;;;1.17;1.07;;;23.80;40.40;;;;;;6206209;23;20292;-62
2022/09/18 03:53:00;;;;;;;1.33;0.97;;;23.80;40.50;;;;;;6208454;23;20198;-62
2022/09/18 03:55:26;;;;;;;1.20;1.00;;;23.80;40.50;;;;;;6203960;23;20201;-59
2022/09/18 03:57:52;;;;;;;1.10;1.00;;;23.80;40.70;;;;;;6207319;23;20263;-59
2022/09/18 04:00:18;;;;;;;1.00;0.90;;;23.80;40.50;;;;;;6203332;23;20499;-62
2022/09/18 04:02:43;;;;;;;3.17;1.10;;;23.80;40.40;;;;;;6206356;23;20201;-60
2022/09/18 04:05:09;;;;;;;1.43;1.13;;;23.80;40.40;;;;;;6206493;23;20411;-60
2022/09/18 04:07:35;;;;;;;1.10;0.90;;;23.80;40.40;;;;;;6206063;23;20212;-62
2022/09/18 04:10:01;;;;;;;1.30;1.20;;;23.80;40.50;;;;;;6208131;23;20956;-59
2022/09/18 04:12:27;;;;;;;1.03;0.90;;;23.80;40.50;;;;;;6206213;23;20198;-59
2022/09/18 04:14:54;;;;;;;1.27;1.17;;;23.80;40.50;;;;;;6204622;23;20221;-60
2022/09/18 04:17:19;;;;;;;1.20;0.93;;;23.80;40.40;;;;;;6204169;23;20209;-59
2022/09/18 04:19:45;;;;;;;1.07;0.97;;;23.80;40.50;;;;;;6205821;23;20423;-60
2022/09/18 04:22:11;;;;;;;1.00;0.90;;;23.80;40.50;;;;;;6204692;23;20194;-60
2022/09/18 04:24:38;;;;;;;1.13;1.03;;;23.80;40.50;;;;;;6204401;23;20513;-59
2022/09/18 04:27:04;;;;;;;1.07;0.97;;;23.80;40.40;;;;;;6204995;23;20194;-60
2022/09/18 04:29:31;;;;;;;1.53;1.07;;;23.80;40.50;;;;;;6204204;23;20432;-59
2022/09/18 04:31:57;;;;;;;1.20;1.10;;;23.80;40.50;;;;;;6203949;23;20440;-60
2022/09/18 04:34:23;;;;;;;1.00;0.90;;;23.80;40.50;;;;;;6204723;23;21106;-62
2022/09/18 04:36:48;;;;;;;1.10;0.90;;;23.80;41.20;;;;;;6206167;23;20484;-63
2022/09/18 04:39:14;;;;;;;1.17;1.03;;;23.80;40.50;;;;;;6207022;23;20587;-61
2022/09/18 04:41:39;;;;;;;1.00;0.90;;;23.80;40.40;;;;;;6205949;23;20300;-61
2022/09/18 04:44:06;;;;;;;1.10;1.00;;;23.80;40.50;;;;;;6205729;23;20228;-60
2022/09/18 04:46:32;;;;;;;1.10;1.00;;;23.80;40.50;;;;;;6207078;23;20202;-61
2022/09/18 04:48:57;;;;;;;0.93;0.90;;;23.80;40.40;;;;;;6206154;23;20432;-60
2022/09/18 04:51:23;;;;;;;1.00;0.90;;;23.80;40.50;;;;;;6205839;23;20419;-60
2022/09/18 04:53:49;;;;;;;1.30;1.20;;;23.80;40.40;;;;;;6206723;23;20198;-60
2022/09/18 04:56:15;;;;;;;0.90;0.90;;;23.80;40.50;;;;;;6206800;23;20204;-60
2022/09/18 04:58:40;;;;;;;1.20;1.10;;;23.80;40.50;;;;;;6205847;23;20520;-63
2022/09/18 05:01:06;;;;;;;1.00;0.90;;;23.80;40.40;;;;;;6180116;23;20595;-60
2022/09/18 05:03:31;;;;;;;1.10;1.00;;;23.80;40.40;;;;;;6211844;23;20281;-61
2022/09/18 05:05:57;;;;;;;1.00;0.90;;;23.80;40.40;;;;;;6206562;23;20193;-61
2022/09/18 05:08:22;;;;;;;1.20;1.10;;;23.80;40.30;;;;;;6208781;23;20321;-65
2022/09/18 05:10:48;;;;;;;1.20;1.10;;;23.80;40.40;;;;;;6206245;23;20634;-59
2022/09/18 05:13:14;;;;;;;1.13;1.03;;;23.80;40.40;;;;;;6207440;23;20194;-58
2022/09/18 05:15:39;;;;;;;1.00;1.00;;;23.80;40.30;;;;;;6204826;23;20237;-60
2022/09/18 05:18:06;;;;;;;1.50;1.20;;;23.80;40.30;;;;;;6207783;23;20523;-59
2022/09/18 05:20:33;;;;;;;1.20;1.10;;;23.80;40.30;;;;;;6210129;23;20202;-61
2022/09/18 05:22:59;;;;;;;1.77;1.10;;;23.80;40.30;;;;;;6177323;23;20491;-60
2022/09/18 05:25:27;;;;;;;1.10;1.00;;;23.80;40.30;;;;;;6199925;23;20446;-59
2022/09/18 05:27:58;;;;;;;1.47;0.90;;;23.80;40.30;;;;;;6197892;23;20307;-59
2022/09/18 05:30:25;;;;;;;1.10;1.00;;;23.80;40.30;;;;;;6191266;23;20519;-62
2022/09/18 05:32:57;;;;;;;1.00;0.90;;;23.80;40.30;;;;;;6208382;23;20473;-60
2022/09/18 05:35:24;;;;;;;3.03;1.10;;;23.80;40.30;;;;;;6207290;23;20419;-60
2022/09/18 05:37:51;;;;;;;1.10;1.00;;;23.80;40.30;;;;;;6202757;23;20744;-60
2022/09/18 05:40:18;;;;;;;1.20;1.10;;;23.80;40.30;;;;;;6206119;23;20419;-61
2022/09/18 05:42:47;;;;;;;0.97;0.97;;;23.80;40.30;;;;;;6205841;23;20884;-61
2022/09/18 05:45:14;;;;;;;1.13;1.03;;;23.80;40.30;;;;;;6202929;23;20420;-59
2022/09/18 05:47:40;;;;;;;1.50;0.93;;;23.80;40.30;;;;;;6202551;23;20495;-59
2022/09/18 05:50:06;;;;;;;1.30;0.97;;;23.80;40.30;;;;;;6207869;23;20852;-59
2022/09/18 05:52:32;;;;;;;1.00;0.90;;;23.80;40.30;;;;;;6208682;23;20292;-60
2022/09/18 05:54:57;;;;;;;1.10;1.00;;;23.80;40.30;;;;;;6203003;23;20859;-58
2022/09/18 05:57:23;;;;;;;1.83;1.20;;;23.80;40.30;;;;;;6202457;23;20301;-59
2022/09/18 05:59:48;;;;;;;1.30;1.20;;;23.80;40.20;;;;;;6206069;23;20640;-59
2022/09/18 06:02:14;;;;;;;1.00;0.90;;;23.80;40.20;;;;;;6205659;23;20194;-59
2022/09/18 06:04:40;;;;;;;1.10;0.93;;;23.80;40.30;;;;;;6207078;23;20205;-59
2022/09/18 06:07:05;;;;;;;1.20;1.10;;;23.80;40.30;;;;;;6206806;23;20220;-60
2022/09/18 06:09:31;;;;;;;1.00;0.90;;;23.80;40.30;;;;;;6210592;23;20206;-59
2022/09/18 06:11:57;;;;;;;1.10;1.00;;;23.80;40.30;;;;;;6201344;23;20206;-59
2022/09/18 06:14:23;;;;;;;1.10;1.00;;;23.80;40.30;;;;;;6206669;23;20194;-58
2022/09/18 06:16:48;;;;;;;3.07;1.20;;;23.80;40.30;;;;;;6207592;23;20741;-61
2022/09/18 06:19:14;;;;;;;0.90;0.90;;;23.80;40.20;;;;;;6208154;23;20205;-60
2022/09/18 06:21:40;;;;;;;1.33;1.23;;;23.80;40.30;;;;;;6207002;23;20197;-60
2022/09/18 06:24:06;;;;;;;1.20;1.10;;;23.80;40.30;;;;;;6207069;23;20194;-61
2022/09/18 06:26:31;;;;;;;1.10;1.00;;;23.80;40.30;;;;;;6208744;23;20742;-63
2022/09/18 06:28:57;;;;;;;2.07;0.90;;;23.80;40.30;;;;;;6207740;23;20281;-62
2022/09/18 06:31:22;;;;;;;1.20;1.10;;;23.80;40.20;;;;;;6208062;23;20745;-60
2022/09/18 06:33:48;;;;;;;1.07;1.00;;;23.90;40.30;;;;;;6209401;23;20512;-61
2022/09/18 06:36:15;;;;;;;1.20;1.10;;;23.80;40.30;;;;;;6207087;23;20218;-60
2022/09/18 06:38:40;;;;;;;1.30;1.07;;;23.80;40.30;;;;;;6203845;23;20212;-60
2022/09/18 06:41:07;;;;;;;0.97;0.87;;;23.80;40.30;;;;;;6198816;23;20419;-64
2022/09/18 06:43:34;;;;;;;1.10;1.00;;;23.80;40.30;;;;;;6203891;23;20201;-60
2022/09/18 06:45:59;;;;;;;1.10;0.97;;;23.80;40.30;;;;;;6203438;23;20503;-59
2022/09/18 06:48:25;;;;;;;1.33;1.23;;;23.80;40.30;;;;;;6202675;23;21269;-62
2022/09/18 06:50:58;;;;;;;1.10;1.00;;;23.80;40.20;;;;;;6202926;23;20678;-60
2022/09/18 06:53:25;;;;;;;1.20;1.10;;;23.80;40.30;;;;;;6200964;23;20415;-59
2022/09/18 06:55:51;;;;;;;1.00;0.90;;;23.80;40.20;;;;;;6201143;23;20420;-61
2022/09/18 06:58:18;;;;;;;0.90;0.80;;;23.80;40.30;;;;;;6200963;23;20447;-64
2022/09/18 07:00:45;;;;;;;2.80;1.00;;;23.80;40.20;;;;;;6200353;23;20197;-63
2022/09/18 07:03:10;;;;;;;1.40;1.03;;;23.80;40.30;;;;;;6198899;23;20448;-61
2022/09/18 07:05:41;;;;;;;0.83;0.83;;;23.80;40.50;;;;;;6201213;23;20443;-59
2022/09/18 07:08:07;;;;;;;3.73;1.20;;;23.80;40.20;;;;;;6200572;23;20190;-59
2022/09/18 07:10:33;;;;;;;1.10;1.00;;;23.80;40.20;;;;;;6198688;23;20423;-61
2022/09/18 07:13:00;;;;;;;1.33;1.20;;;23.80;40.20;;;;;;6204554;23;20494;-59
2022/09/18 07:15:26;;;;;;;1.07;0.97;;;23.90;40.30;;;;;;6204097;23;20256;-59
2022/09/18 07:17:55;;;;;;;1.83;1.10;;;23.90;40.30;;;;;;6204593;23;20776;-58
2022/09/18 07:20:21;;;;;;;3.53;1.30;;;23.80;40.20;;;;;;6207386;23;20676;-60
2022/09/18 07:22:55;;;;;;;1.97;0.90;;;23.80;40.20;;;;;;6206639;23;20420;-61
2022/09/18 07:25:21;;;;;;;1.03;0.93;;;23.90;40.30;;;;;;6206325;23;20626;-59
2022/09/18 07:27:47;;;;;;;1.40;0.93;;;23.80;40.20;;;;;;6206987;23;20412;-59
2022/09/18 07:30:13;;;;;;;2.03;1.20;;;23.80;40.20;;;;;;6208200;23;20210;-62
2022/09/18 07:32:38;;;;;;;1.70;1.10;;;23.80;40.20;;;;;;6208829;23;20466;-60
2022/09/18 07:35:04;;;;;;;1.10;1.00;;;23.80;40.20;;;;;;6207192;23;20198;-59
2022/09/18 07:37:30;;;;;;;1.00;0.93;;;23.80;40.20;;;;;;6208050;23;20648;-59
2022/09/18 07:39:55;;;;;;;1.00;0.90;;;23.80;40.20;;;;;;6205762;23;20247;-60
2022/09/18 07:42:21;;;;;;;1.10;1.00;;;23.80;40.20;;;;;;6205461;23;20197;-58
2022/09/18 07:44:46;;;;;;;1.60;0.93;;;23.80;40.20;;;;;;6203536;23;20202;-59
2022/09/18 07:47:12;;;;;;;1.20;1.10;;;23.80;40.20;;;;;;6205005;23;20225;-61
2022/09/18 07:49:38;;;;;;;1.13;1.03;;;23.80;40.20;;;;;;6207606;23;20656;-58
2022/09/18 07:52:04;;;;;;;1.07;0.97;;;23.80;40.20;;;;;;6179504;23;20438;-59
2022/09/18 07:54:30;;;;;;;1.60;1.23;;;23.80;40.20;;;;;;6209068;23;20221;-58
2022/09/18 07:56:55;;;;;;;1.33;1.00;;;23.80;40.20;;;;;;6203256;23;20656;-61
2022/09/18 07:59:21;;;;;;;2.43;1.00;;;23.80;40.20;;;;;;6205281;23;20420;-63
2022/09/18 08:01:47;;;;;;;1.20;1.10;;;23.80;40.20;;;;;;6201894;23;20198;-64
2022/09/18 08:04:12;;;;;;;2.63;1.40;;;23.80;40.10;;;;;;6202825;23;20701;-59
2022/09/18 08:06:38;;;;;;;1.77;1.30;;;23.80;40.20;;;;;;6203854;23;20202;-59
2022/09/18 08:09:04;;;;;;;2.23;0.97;;;23.80;40.20;;;;;;6203973;23;20244;-59
2022/09/18 08:11:30;;;;;;;3.90;1.10;;;23.80;40.20;;;;;;6207686;23;20197;-60
2022/09/18 08:13:55;;;;;;;1.93;1.03;;;23.80;40.10;;;;;;6204442;23;20197;-59
2022/09/18 08:16:21;;;;;;;1.30;1.20;;;23.80;40.20;;;;;;6204131;23;20217;-58
2022/09/18 08:18:47;;;;;;;5.70;1.00;;;23.80;40.10;;;;;;6204564;23;20216;-59
2022/09/18 08:21:13;;;;;;;2.70;0.90;;;23.80;40.10;;;;;;6206589;23;20451;-60
2022/09/18 08:23:38;;;;;;;2.93;1.17;;;23.80;40.10;;;;;;6205761;23;20198;-59
2022/09/18 08:26:04;;;;;;;2.30;1.27;;;23.90;40.20;;;;;;6178808;23;20198;-59
2022/09/18 08:28:30;;;;;;;3.27;1.30;;;23.90;40.20;;;;;;6204212;23;20198;-58
2022/09/18 08:30:56;;;;;;;2.17;1.13;;;23.90;40.20;;;;;;6205176;23;20190;-59
2022/09/18 08:33:22;;;;;;;1.87;1.13;;;23.90;40.20;;;;;;6207631;23;20190;-59
2022/09/18 08:35:47;;;;;;;14.20;9.80;;;23.90;40.20;;;;;;6208047;23;20426;-60
2022/09/18 08:38:13;;;;;;;58.13;12.73;;;23.90;40.20;;;;;;6209319;23;20221;-59
2022/09/18 08:40:53;;;;;;;23.30;9.13;;;23.90;40.20;;;;;;6209148;23;20202;-59
2022/09/18 08:43:40;;;;;;;16.63;5.80;;;23.90;40.20;;;;;;6205376;23;20414;-60
2022/09/18 08:46:13;;;;;;;17.23;6.93;;;23.90;40.20;;;;;;6177237;23;21064;-60
2022/09/18 08:48:48;;;;;;;27.83;7.10;;;23.90;40.30;;;;;;6177709;23;20413;-60
2022/09/18 08:51:24;;;;;;;16.13;5.67;;;23.90;40.30;;;;;;6176836;23;20420;-60
2022/09/18 08:53:55;;;;;;;22.57;5.30;;;23.90;40.40;;;;;;6176943;23;20439;-59
2022/09/18 08:56:23;;;;;;;22.07;5.00;;;23.90;40.40;;;;;;6177245;23;20487;-60
2022/09/18 08:59:02;;;;;;;8.00;4.40;;;23.90;40.40;;;;;;6177067;23;20731;-59
2022/09/18 09:02:00;;;;;;;13.23;3.50;;;23.90;40.50;;;;;;6178184;23;20419;-59
2022/09/18 09:04:29;;;;;;;6.67;2.90;;;23.90;40.50;;;;;;6175321;23;20427;-60
2022/09/18 09:07:29;;;;;;;6.57;2.63;;;23.90;40.50;;;;;;6180802;23;20509;-60
2022/09/18 09:10:15;;;;;;;9.90;2.77;;;23.90;40.50;;;;;;6174307;23;21217;-62
2022/09/18 09:12:57;;;;;;;3.87;2.93;;;23.90;40.50;;;;;;6206560;23;20424;-60
2022/09/18 09:15:32;;;;;;;2.53;2.27;;;23.90;40.60;;;;;;6204244;23;20399;-61
2022/09/18 09:18:33;;;;;;;4.27;2.70;;;23.90;40.70;;;;;;6184593;23;20880;-60
2022/09/18 09:21:15;;;;;;;6.10;2.70;;;23.90;40.70;;;;;;6108273;23;20739;-59
2022/09/18 09:23:49;;;;;;;7.53;2.63;;;23.90;40.80;;;;;;6195349;23;20485;-59
2022/09/18 09:26:19;;;;;;;4.70;2.17;;;23.90;40.70;;;;;;6207593;23;20418;-59
2022/09/18 09:28:58;;;;;;;6.43;2.93;;;23.90;40.70;;;;;;6207213;23;20733;-59
2022/09/18 09:31:28;;;;;;;6.67;2.20;;;23.90;40.70;;;;;;6207136;23;20419;-59
2022/09/18 09:34:10;;;;;;;14.30;3.50;;;23.90;40.70;;;;;;6208388;23;20503;-60
2022/09/18 09:36:37;;;;;;;2.97;2.77;;;23.90;40.70;;;;;;6197845;23;20420;-60
2022/09/18 09:39:30;;;;;;;6.47;2.10;;;23.90;40.70;;;;;;6209317;23;20412;-59
2022/09/18 09:42:04;;;;;;;6.13;2.40;;;23.90;40.70;;;;;;6169496;23;20428;-59
2022/09/18 09:44:51;;;;;;;3.07;2.23;;;23.90;40.70;;;;;;6174243;23;20947;-59
2022/09/18 09:47:33;;;;;;;5.57;2.17;;;23.90;40.70;;;;;;6189573;23;20427;-61
2022/09/18 09:50:24;;;;;;;4.90;2.50;;;23.90;40.70;;;;;;6202217;23;20428;-59
2022/09/18 09:52:55;;;;;;;4.13;2.23;;;23.90;40.70;;;;;;6203690;23;20419;-62
2022/09/18 09:55:48;;;;;;;7.23;2.83;;;23.90;40.70;;;;;;6207260;23;20447;-60
2022/09/18 09:58:34;;;;;;;8.90;2.60;;;24.00;40.70;;;;;;6204752;23;20419;-58
2022/09/18 10:01:10;;;;;;;8.80;2.50;;;24.00;40.70;;;;;;6201283;23;20483;-58
2022/09/18 10:03:46;;;;;;;5.97;2.00;;;24.00;40.70;;;;;;6199480;23;20423;-59
2022/09/18 10:06:40;;;;;;;3.57;1.90;;;24.00;40.70;;;;;;6205938;23;20770;-61
2022/09/18 10:09:51;;;;;;;5.50;2.07;;;24.00;40.70;;;;;;6181320;23;20503;-59
2022/09/18 10:12:28;;;;;;;15.10;2.93;;;24.00;40.70;;;;;;6182809;23;20424;-58
2022/09/18 10:15:00;;;;;;;19.73;2.10;;;24.00;40.80;;;;;;6177105;23;20441;-59
2022/09/18 10:17:30;;;;;;;5.90;2.30;;;24.00;40.80;;;;;;6204991;23;20431;-58
2022/09/18 10:19:56;;;;;;;7.63;1.80;;;24.00;40.80;;;;;;6204641;23;20756;-63
2022/09/18 10:22:23;;;;;;;9.10;2.70;;;24.00;40.80;;;;;;6203642;23;20415;-60
2022/09/18 10:25:01;;;;;;;2.80;1.90;;;24.00;40.90;;;;;;6207755;23;20224;-59
2022/09/18 10:27:26;;;;;;;5.17;1.70;;;24.00;40.90;;;;;;6205898;23;20416;-59
2022/09/18 10:29:53;;;;;;;4.33;1.83;;;24.00;40.90;;;;;;6207341;23;20458;-59
2022/09/18 10:32:40;;;;;;;1.73;1.53;;;24.00;40.90;;;;;;6207377;23;20187;-60
2022/09/18 10:35:27;;;;;;;5.40;1.40;;;24.00;41.00;;;;;;6200833;23;20470;-59
2022/09/18 10:37:53;;;;;;;2.67;1.90;;;24.00;41.00;;;;;;6206742;23;20530;-59
2022/09/18 10:40:38;;;;;;;3.30;1.53;;;23.90;41.00;;;;;;6185483;23;20884;-59
2022/09/18 10:43:16;;;;;;;2.73;1.70;;;23.90;41.00;;;;;;6187134;23;20221;-59
2022/09/18 10:45:41;;;;;;;2.80;1.63;;;23.90;40.90;;;;;;6196923;23;20886;-59
2022/09/18 10:48:12;;;;;;;1.70;1.53;;;23.90;40.90;;;;;;6199326;23;20481;-60
2022/09/18 10:50:50;;;;;;;2.70;1.60;;;23.90;41.00;;;;;;6194049;23;20202;-59
2022/09/18 10:53:38;;;;;;;3.63;1.70;;;23.90;41.00;;;;;;6186112;23;20427;-61
2022/09/18 10:56:15;;;;;;;1.70;1.60;;;23.90;41.00;;;;;;6176391;23;20880;-59
2022/09/18 10:58:42;;;;;;;2.13;1.50;;;23.90;41.70;;;;;;6184865;23;20458;-61
2022/09/18 11:01:09;;;;;;;2.80;1.50;;;23.90;40.90;;;;;;6206101;23;20859;-62
2022/09/18 11:03:48;;;;;;;1.77;1.10;;;23.90;40.90;;;;;;6207941;23;20822;-59
2022/09/18 11:06:24;;;;;;;1.53;1.43;;;23.90;40.90;;;;;;6206873;23;20420;-59
2022/09/18 11:08:53;;;;;;;2.23;1.40;;;23.90;40.80;;;;;;6206448;23;20544;-59
2022/09/18 11:11:23;;;;;;;1.80;1.50;;;23.90;40.80;;;;;;6206785;23;20419;-60
2022/09/18 11:13:57;;;;;;;3.10;1.20;;;23.90;40.80;;;;;;6206944;23;20749;-60
2022/09/18 11:16:29;;;;;;;3.10;1.67;;;23.90;40.80;;;;;;6178503;23;20423;-59
2022/09/18 11:19:05;;;;;;;1.43;1.33;;;23.90;40.80;;;;;;6203233;23;20893;-60
2022/09/18 11:21:31;;;;;;;1.73;1.63;;;23.90;40.80;;;;;;6198580;23;20490;-60
2022/09/18 11:24:20;;;;;;;2.07;1.17;;;23.90;40.80;;;;;;6189771;23;20936;-59
2022/09/18 11:26:51;;;;;;;4.73;1.77;;;23.90;40.70;;;;;;6179874;23;20202;-62
2022/09/18 11:29:38;;;;;;;1.40;1.30;;;23.90;40.80;;;;;;6175880;23;20491;-60
2022/09/18 11:32:20;;;;;;;3.23;1.40;;;23.90;40.70;;;;;;6183505;23;21318;-62
2022/09/18 11:34:53;;;;;;;1.43;1.10;;;23.90;40.70;;;;;;6176500;23;20436;-61
2022/09/18 11:37:38;;;;;;;1.83;1.17;;;23.90;40.80;;;;;;6170415;23;20475;-60
2022/09/18 11:40:18;;;;;;;1.53;1.13;;;23.90;40.70;;;;;;6173846;23;20852;-61
2022/09/18 11:42:46;;;;;;;1.77;1.20;;;23.90;40.70;;;;;;6205606;23;20426;-61
2022/09/18 11:45:39;;;;;;;1.43;1.10;;;23.90;40.70;;;;;;6204292;23;20412;-61
2022/09/18 11:48:20;;;;;;;1.30;1.20;;;23.90;40.70;;;;;;6192651;23;20428;-59
2022/09/18 11:50:46;;;;;;;1.57;1.33;;;23.90;40.80;;;;;;6175282;23;20443;-60
2022/09/18 11:53:23;;;;;;;1.20;1.10;;;23.90;40.80;;;;;;6201834;23;20412;-60
2022/09/18 11:55:56;;;;;;;2.07;1.10;;;23.90;40.80;;;;;;6174875;23;20420;-59
2022/09/18 11:58:35;;;;;;;2.30;1.60;;;23.90;40.70;;;;;;6175432;23;20432;-60
2022/09/18 12:01:26;;;;;;;1.20;1.10;;;23.90;40.70;;;;;;6196591;23;20399;-59
2022/09/18 12:04:09;;;;;;;3.33;1.50;;;23.90;40.70;;;;;;6199456;23;20756;-61
2022/09/18 12:06:47;;;;;;;1.20;1.10;;;23.90;40.70;;;;;;6184850;23;20413;-59
2022/09/18 12:09:23;;;;;;;1.47;1.30;;;23.90;40.70;;;;;;6177380;23;20995;-59
2022/09/18 12:12:08;;;;;;;1.43;1.20;;;23.90;40.70;;;;;;6173966;23;20486;-59
2022/09/18 12:14:47;;;;;;;1.93;1.47;;;23.90;40.70;;;;;;6199979;23;20466;-60
2022/09/18 12:17:51;;;;;;;1.67;1.00;;;23.90;40.70;;;;;;6205895;23;20443;-60
2022/09/18 12:20:33;;;;;;;1.90;1.00;;;23.90;40.70;;;;;;6112341;23;20929;-59
2022/09/18 12:23:01;;;;;;;1.20;1.10;;;23.90;40.80;;;;;;6174251;23;20416;-60
2022/09/18 12:25:41;;;;;;;1.67;1.27;;;23.90;40.70;;;;;;6174289;23;20417;-60
2022/09/18 12:28:28;;;;;;;1.53;1.00;;;23.90;40.70;;;;;;6201473;23;20493;-60
2022/09/18 12:31:19;;;;;;;1.20;1.10;;;23.90;40.70;;;;;;6181957;23;20443;-59
2022/09/18 12:33:54;;;;;;;2.00;1.63;;;23.90;40.70;;;;;;6188306;23;20502;-60
2022/09/18 12:36:43;;;;;;;1.20;1.10;;;23.90;40.70;;;;;;6192530;23;20431;-59
2022/09/18 12:39:49;;;;;;;2.03;1.10;;;23.90;40.70;;;;;;6177598;23;20412;-59
2022/09/18 12:42:32;;;;;;;1.50;1.40;;;23.90;40.70;;;;;;6175553;23;20423;-59
2022/09/18 12:45:09;;;;;;;10.17;2.30;;;23.90;40.80;;;;;;6173845;23;20431;-59
2022/09/18 12:48:03;;;;;;;8.23;2.07;;;23.90;40.80;;;;;;6175535;23;20471;-59
2022/09/18 12:51:13;;;;;;;20.47;4.10;;;23.80;40.70;;;;;;6187990;23;20880;-59
2022/09/18 12:53:56;;;;;;;11.47;3.20;;;23.90;40.70;;;;;;6152437;23;20753;-61
2022/09/18 12:56:45;;;;;;;10.23;1.80;;;23.90;40.80;;;;;;6175010;23;20424;-61
2022/09/18 12:59:31;;;;;;;15.40;2.60;;;23.90;40.80;;;;;;6178825;23;20424;-61
2022/09/18 13:02:10;;;;;;;3.40;1.77;;;23.90;40.80;;;;;;6171771;23;20420;-63
2022/09/18 13:04:44;;;;;;;3.03;1.60;;;23.90;40.70;;;;;;6172808;23;20555;-61
2022/09/18 13:07:15;;;;;;;6.10;1.63;;;23.90;40.70;;;;;;6172836;23;20426;-58
2022/09/18 13:09:47;;;;;;;5.00;1.50;;;24.00;40.80;;;;;;6173169;23;20443;-59
2022/09/18 13:12:19;;;;;;;1.90;1.20;;;24.00;40.70;;;;;;6174370;23;20420;-58